Hillsborough, Canada
Current Conditions -  °F | °C
As of 9:00 PM on Saturday 22 Nov 2014 (Local Time) from CYQM Reporting Station
Overcast Overcast  
Wind Chill: 25°   Ceiling: 4600
Heat Index: 36°   Visibility: 15mi
Dew Point: 23°   Wind: 18mph
Humidity: 60%   Direction: 230°SW
Pressure: 29.81"   Gusts: NA
Location:  45.92°N, 64.65°W
Report Text: CYQM 230100Z 23016KT 15SM OVC046 02/M05 A2981 RMK SC8 SLP097
Loading
Personal Weather Stations






























Interactive Weather Map New forecast layout! Learn more

10-Day Weather Forecast

Advertisements
Track Severe Weather on mobile